createdAt,value
2022-12-01T00:01:15.027Z,51.13
2022-12-01T00:07:16.547Z,50.88
2022-12-01T00:13:18.069Z,45.70
2022-12-01T00:19:19.819Z,51.88
2022-12-01T00:25:21.611Z,53.30
2022-12-01T00:31:23.603Z,52.93
2022-12-01T00:37:25.249Z,52.05
2022-12-01T00:43:26.866Z,50.53
2022-12-01T00:49:28.386Z,60.63
2022-12-01T00:55:29.895Z,67.40
2022-12-01T01:01:31.514Z,65.43
2022-12-01T01:07:33.123Z,64.13
2022-12-01T01:13:35.720Z,73.60
2022-12-01T01:19:37.203Z,66.90
2022-12-01T01:25:38.701Z,62.65
2022-12-01T01:31:40.278Z,59.83
2022-12-01T01:37:41.863Z,68.07
2022-12-01T01:44:00.590Z,57.47
2022-12-01T01:50:06.423Z,63.15
2022-12-01T01:56:08.579Z,53.60
2022-12-01T02:02:11.148Z,51.73
2022-12-01T02:08:12.790Z,58.47
2022-12-01T02:14:17.308Z,48.87
2022-12-01T02:20:37.372Z,48.35
2022-12-01T02:26:44.214Z,42.83
2022-12-01T02:33:01.098Z,50.20
2022-12-01T02:39:11.574Z,58.80
2022-12-01T02:45:16.496Z,52.37
2022-12-01T02:51:24.048Z,55.85
2022-12-01T02:57:25.711Z,56.28
2022-12-01T03:03:38.945Z,55.83
2022-12-01T03:09:49.874Z,57.97
2022-12-01T03:15:56.502Z,60.20
2022-12-01T03:22:08.621Z,60.30
2022-12-01T03:28:27.643Z,46.65
2022-12-01T03:34:36.757Z,46.93
2022-12-01T03:40:39.238Z,43.75
2022-12-01T03:46:52.787Z,47.27
2022-12-01T03:53:00.366Z,38.78
2022-12-01T03:59:02.794Z,43.53
2022-12-01T04:05:05.366Z,48.47
2022-12-01T04:11:32.191Z,50.97
2022-12-01T04:17:34.207Z,40.60
2022-12-01T04:23:54.547Z,49.35
2022-12-01T04:29:56.220Z,50.33
2022-12-01T04:35:58.328Z,47.57
2022-12-01T04:42:00.095Z,41.85
2022-12-01T04:48:01.663Z,49.03
2022-12-01T04:54:03.276Z,50.13
2022-12-01T05:00:12.913Z,41.10
2022-12-01T05:06:15.648Z,40.73
2022-12-01T05:12:17.246Z,45.38
2022-12-01T05:18:19.215Z,42.93
2022-12-01T05:24:21.351Z,47.90
2022-12-01T05:30:28.241Z,49.65
2022-12-01T05:36:30.171Z,39.97
2022-12-01T05:42:31.690Z,41.85
2022-12-01T05:48:33.249Z,40.17
2022-12-01T05:54:34.837Z,39.60
2022-12-01T06:00:40.874Z,37.25
2022-12-01T06:06:46.830Z,40.77
2022-12-01T06:12:48.686Z,42.80
2022-12-01T06:18:50.226Z,40.77
2022-12-01T06:24:51.763Z,38.05
2022-12-01T06:30:57.840Z,39.95
2022-12-01T06:37:02.866Z,40.97
2022-12-01T06:43:04.597Z,41.22
2022-12-01T06:49:06.159Z,46.17
2022-12-01T06:55:07.858Z,41.72
2022-12-01T07:01:10.851Z,47.78
2022-12-01T07:07:12.696Z,48.07
2022-12-01T07:13:14.200Z,42.00
2022-12-01T07:19:16.208Z,43.73
2022-12-01T07:25:17.751Z,52.15
2022-12-01T07:31:19.583Z,51.63
2022-12-01T07:37:21.151Z,39.57
2022-12-01T07:43:22.661Z,48.70
2022-12-01T07:49:24.161Z,43.10
2022-12-01T07:55:25.669Z,46.00
2022-12-01T08:01:27.344Z,45.85
2022-12-01T08:07:30.068Z,47.03
2022-12-01T08:13:32.074Z,42.47
2022-12-01T08:19:33.591Z,45.57
2022-12-01T08:25:35.178Z,50.30
2022-12-01T08:31:38.019Z,47.47
2022-12-01T08:37:39.674Z,42.47
2022-12-01T08:44:00.127Z,44.65
2022-12-01T08:50:04.864Z,46.67
2022-12-01T08:56:11.967Z,45.25
2022-12-01T09:02:15.017Z,51.10
2022-12-01T09:08:31.539Z,47.80
2022-12-01T09:14:36.392Z,46.40
2022-12-01T09:20:37.908Z,49.20
2022-12-01T09:26:39.432Z,36.42
2022-12-01T09:32:40.931Z,46.70
2022-12-01T09:38:42.433Z,47.07
2022-12-01T09:44:47.749Z,41.35
2022-12-01T09:50:49.278Z,49.03
2022-12-01T09:56:53.004Z,48.83
2022-12-01T10:03:15.673Z,45.92
2022-12-01T10:09:35.944Z,45.77
2022-12-01T10:15:43.888Z,45.95
2022-12-01T10:21:58.273Z,44.53
2022-12-01T10:28:02.760Z,50.05
2022-12-01T10:34:30.572Z,43.40
2022-12-01T10:40:35.127Z,52.90
2022-12-01T10:46:43.375Z,48.70
2022-12-01T10:52:48.422Z,40.47
2022-12-01T10:58:54.325Z,45.83
2022-12-01T11:04:58.081Z,49.13
2022-12-01T11:10:59.618Z,53.87
2022-12-01T11:17:14.943Z,49.70
2022-12-01T11:23:24.242Z,50.10
2022-12-01T11:29:28.482Z,52.88
2022-12-01T11:35:32.029Z,47.85
2022-12-01T11:41:37.999Z,49.13
2022-12-01T11:47:57.603Z,53.33
2022-12-01T11:54:07.293Z,51.57
2022-12-01T12:00:12.564Z,49.85
2022-12-01T12:06:39.929Z,56.40
2022-12-01T12:12:41.940Z,65.77
2022-12-01T12:18:49.577Z,56.55
2022-12-01T12:24:51.149Z,67.27
2022-12-01T12:31:07.238Z,62.95
2022-12-01T12:37:18.907Z,59.00
2022-12-01T12:43:33.208Z,71.40
2022-12-01T12:49:34.742Z,65.60
2022-12-01T12:55:39.000Z,58.83
2022-12-01T13:01:46.406Z,57.50
2022-12-01T13:07:57.958Z,63.20
2022-12-01T13:14:02.414Z,59.30
2022-12-01T13:20:07.188Z,64.45
2022-12-01T13:26:09.987Z,53.47
2022-12-01T13:32:30.384Z,62.92
2022-12-01T13:38:33.576Z,51.92
2022-12-01T13:44:38.645Z,52.20
2022-12-01T13:50:54.455Z,50.40
2022-12-01T13:57:01.582Z,50.80
2022-12-01T14:03:12.363Z,51.53
2022-12-01T14:09:18.782Z,54.08
2022-12-01T14:15:23.088Z,45.97
2022-12-01T14:21:41.583Z,47.15
2022-12-01T14:27:43.577Z,50.33
2022-12-01T14:33:48.622Z,50.00
2022-12-01T14:39:56.281Z,52.72
2022-12-01T14:46:04.546Z,50.47
2022-12-01T14:52:07.356Z,63.42
2022-12-01T14:58:15.060Z,56.57
2022-12-01T15:04:16.589Z,58.40
2022-12-01T15:10:22.795Z,59.75
2022-12-01T15:16:25.639Z,53.27
2022-12-01T15:22:29.601Z,58.03
2022-12-01T15:28:32.435Z,50.03
2022-12-01T15:34:40.001Z,56.17
2022-12-01T15:41:13.361Z,46.38
2022-12-01T15:47:22.832Z,48.30
2022-12-01T15:53:27.754Z,45.85
2022-12-01T15:59:37.516Z,46.13
2022-12-01T16:05:43.940Z,46.95
2022-12-01T16:12:04.767Z,48.65
2022-12-01T16:18:24.224Z,52.47
2022-12-01T16:24:36.227Z,42.90
2022-12-01T16:30:39.286Z,48.00
2022-12-01T16:36:40.940Z,42.63
2022-12-01T16:42:42.813Z,50.42
2022-12-01T16:48:44.328Z,50.17
2022-12-01T16:54:48.195Z,49.45
2022-12-01T17:00:52.748Z,56.27
2022-12-01T17:06:54.394Z,46.15
2022-12-01T17:12:55.940Z,47.45
2022-12-01T17:18:57.651Z,47.57
2022-12-01T17:24:59.693Z,47.97
2022-12-01T17:31:01.925Z,51.93
2022-12-01T17:37:04.453Z,52.22
2022-12-01T17:43:07.016Z,50.60
2022-12-01T17:49:10.537Z,54.73
2022-12-01T17:55:12.052Z,47.25
2022-12-01T18:01:18.043Z,48.93
2022-12-01T18:07:19.791Z,45.70
2022-12-01T18:13:21.786Z,48.53
2022-12-01T18:19:23.377Z,45.47
2022-12-01T18:25:25.029Z,52.90
2022-12-01T18:31:27.671Z,53.27
2022-12-01T18:37:29.264Z,56.67
2022-12-01T18:43:31.307Z,59.45
2022-12-01T18:49:32.889Z,55.13
2022-12-01T18:55:37.582Z,64.43
2022-12-01T19:01:44.167Z,59.57
2022-12-01T19:07:46.152Z,56.05
2022-12-01T19:13:48.213Z,56.10
2022-12-01T19:19:49.786Z,52.57
2022-12-01T19:25:52.849Z,61.75
2022-12-01T19:31:54.881Z,58.83
2022-12-01T19:37:56.473Z,54.42
2022-12-01T19:43:58.030Z,62.67
2022-12-01T19:49:59.624Z,62.37
2022-12-01T19:56:02.239Z,57.65
2022-12-01T20:02:03.938Z,61.63
2022-12-01T20:08:05.782Z,57.75
2022-12-01T20:14:09.199Z,55.70
2022-12-01T20:20:12.374Z,58.30
2022-12-01T20:26:15.075Z,58.72
2022-12-01T20:32:21.983Z,60.27
2022-12-01T20:38:27.741Z,59.60
2022-12-01T20:44:29.753Z,56.55
2022-12-01T20:50:31.374Z,56.47
2022-12-01T20:56:33.256Z,55.95
2022-12-01T21:02:34.995Z,52.43
2022-12-01T21:08:41.008Z,53.72
2022-12-01T21:14:59.628Z,49.70
2022-12-01T21:21:07.876Z,54.33
2022-12-01T21:27:13.942Z,58.10
2022-12-01T21:33:26.097Z,56.13
2022-12-01T21:39:29.112Z,52.20
2022-12-01T21:45:31.940Z,58.22
2022-12-01T21:51:33.477Z,57.23
2022-12-01T21:57:43.341Z,57.10
2022-12-01T22:03:45.754Z,59.90
2022-12-01T22:09:47.729Z,61.05
2022-12-01T22:15:49.281Z,57.88
2022-12-01T22:22:22.130Z,51.33
2022-12-01T22:28:24.488Z,53.72
2022-12-01T22:34:25.968Z,45.20
2022-12-01T22:40:42.227Z,50.80
2022-12-01T22:46:43.800Z,55.97
2022-12-01T22:52:45.378Z,50.67
2022-12-01T22:58:46.977Z,54.08
2022-12-01T23:04:50.016Z,50.87
2022-12-01T23:10:52.022Z,52.88
2022-12-01T23:17:00.441Z,55.00
2022-12-01T23:23:03.851Z,50.70
2022-12-01T23:29:05.397Z,43.13
2022-12-01T23:35:10.295Z,47.53
2022-12-01T23:41:30.383Z,42.33
2022-12-01T23:47:31.926Z,49.17
2022-12-01T23:53:33.615Z,44.67
2022-12-01T23:59:37.075Z,49.17
